Time;durP1;ratioP1;P1;durP2;ratioP2;P2;SDS_P1;SDS_P2;PMS_P1;PMS_P2;Temp;Humidity;BMP_temperature;BMP_pressure;BME280_temperature;BME280_humidity;BME280_pressure;Samples;Min_cycle;Max_cycle;Signal;HPM_P1;HPM_P2
2021/03/15 00:02:10;;;;;;;1.67;1.40;;;;;;;19.30;44.51;100219.27;;;;-58
2021/03/15 00:05:10;;;;;;;1.70;1.42;;;;;;;19.29;44.46;100216.25;;;;-58
2021/03/15 00:08:10;;;;;;;1.47;1.37;;;;;;;19.27;44.54;100212.98;;;;-57
2021/03/15 00:11:10;;;;;;;1.63;1.43;;;;;;;19.25;44.50;100212.41;;;;-58
2021/03/15 00:14:10;;;;;;;1.49;1.38;;;;;;;19.23;44.51;100210.05;;;;-58
2021/03/15 00:17:10;;;;;;;1.46;1.36;;;;;;;19.22;44.56;100209.73;;;;-58
2021/03/15 00:20:10;;;;;;;1.47;1.32;;;;;;;19.20;44.55;100211.76;;;;-58
2021/03/15 00:23:10;;;;;;;1.70;1.39;;;;;;;19.18;44.56;100202.81;;;;-58
2021/03/15 00:26:10;;;;;;;1.54;1.40;;;;;;;19.16;44.56;100192.65;;;;-58
2021/03/15 00:29:10;;;;;;;1.40;1.30;;;;;;;19.15;44.57;100193.04;;;;-58
2021/03/15 00:32:10;;;;;;;1.34;1.24;;;;;;;19.13;44.58;100193.44;;;;-57
2021/03/15 00:35:10;;;;;;;1.31;1.21;;;;;;;19.10;44.59;100193.76;;;;-57
2021/03/15 00:38:10;;;;;;;1.41;1.30;;;;;;;19.10;44.58;100200.83;;;;-59
2021/03/15 00:41:10;;;;;;;1.75;1.35;;;;;;;19.08;44.57;100197.56;;;;-57
2021/03/15 00:44:10;;;;;;;1.38;1.28;;;;;;;19.06;44.60;100196.34;;;;-58
2021/03/15 00:47:10;;;;;;;1.49;1.37;;;;;;;19.04;44.58;100195.92;;;;-58
2021/03/15 00:50:10;;;;;;;1.44;1.30;;;;;;;19.03;44.64;100204.77;;;;-57
2021/03/15 00:53:10;;;;;;;1.40;1.30;;;;;;;19.02;44.61;100206.31;;;;-58
2021/03/15 00:56:10;;;;;;;1.41;1.31;;;;;;;19.00;44.63;100199.23;;;;-58
2021/03/15 00:59:10;;;;;;;1.85;1.33;;;;;;;18.98;44.59;100199.39;;;;-58
2021/03/15 01:02:10;;;;;;;1.72;1.27;;;;;;;18.96;44.63;100201.58;;;;-58
2021/03/15 01:05:10;;;;;;;1.57;1.30;;;;;;;18.95;44.68;100203.86;;;;-58
2021/03/15 01:08:10;;;;;;;1.31;1.21;;;;;;;18.93;44.64;100206.45;;;;-58
2021/03/15 01:11:10;;;;;;;1.39;1.29;;;;;;;18.91;44.70;100200.19;;;;-58
2021/03/15 01:14:10;;;;;;;1.88;1.40;;;;;;;18.90;44.69;100197.24;;;;-58
2021/03/15 01:17:10;;;;;;;1.53;1.37;;;;;;;18.88;44.72;100197.89;;;;-57
2021/03/15 01:20:10;;;;;;;1.47;1.37;;;;;;;18.87;44.70;100186.04;;;;-59
2021/03/15 01:23:10;;;;;;;1.40;1.30;;;;;;;18.86;44.75;100182.13;;;;-58
2021/03/15 01:26:10;;;;;;;1.38;1.28;;;;;;;18.85;44.67;100182.05;;;;-57
2021/03/15 01:29:10;;;;;;;1.64;1.39;;;;;;;18.83;44.70;100180.09;;;;-57
2021/03/15 01:32:10;;;;;;;1.40;1.30;;;;;;;18.81;44.71;100164.66;;;;-57
2021/03/15 01:35:10;;;;;;;1.20;1.10;;;;;;;18.81;44.73;100155.66;;;;-58
2021/03/15 01:38:10;;;;;;;1.40;1.30;;;;;;;18.79;44.71;100147.03;;;;-58
2021/03/15 01:41:10;;;;;;;1.79;1.27;;;;;;;18.77;44.73;100137.82;;;;-57
2021/03/15 01:44:10;;;;;;;1.30;1.20;;;;;;;18.76;44.80;100137.18;;;;-58
2021/03/15 01:47:10;;;;;;;1.29;1.19;;;;;;;18.75;44.76;100131.40;;;;-58
2021/03/15 01:50:10;;;;;;;1.41;1.31;;;;;;;18.73;44.79;100125.38;;;;-57
2021/03/15 01:53:10;;;;;;;1.40;1.30;;;;;;;18.72;44.81;100120.28;;;;-57
2021/03/15 01:56:10;;;;;;;1.20;1.10;;;;;;;18.71;44.79;100108.41;;;;-57
2021/03/15 01:59:10;;;;;;;1.62;1.20;;;;;;;18.69;44.75;100096.95;;;;-57
2021/03/15 02:02:10;;;;;;;1.26;1.16;;;;;;;18.68;44.72;100090.39;;;;-58
2021/03/15 02:05:10;;;;;;;1.23;1.12;;;;;;;18.66;44.79;100083.41;;;;-57
2021/03/15 02:08:11;;;;;;;1.57;1.20;;;;;;;18.65;44.78;100074.63;;;;-58
2021/03/15 02:11:10;;;;;;;1.39;1.29;;;;;;;18.63;44.76;100071.93;;;;-57
2021/03/15 02:14:10;;;;;;;1.25;1.17;;;;;;;18.62;44.77;100075.91;;;;-58
2021/03/15 02:17:10;;;;;;;1.23;1.13;;;;;;;18.61;44.78;100071.52;;;;-57
2021/03/15 02:20:10;;;;;;;1.62;1.20;;;;;;;18.60;44.79;100069.09;;;;-57
2021/03/15 02:23:10;;;;;;;1.35;1.25;;;;;;;18.60;44.79;100069.25;;;;-57
2021/03/15 02:26:10;;;;;;;1.30;1.20;;;;;;;18.60;44.77;100060.73;;;;-58
2021/03/15 02:29:10;;;;;;;1.29;1.20;;;;;;;18.57;44.76;100051.80;;;;-57
2021/03/15 02:32:10;;;;;;;1.30;1.20;;;;;;;18.56;44.81;100048.06;;;;-57
2021/03/15 02:36:10;;;;;;;1.30;1.20;;;;;;;18.55;44.82;100041.14;;;;-58
2021/03/15 02:39:10;;;;;;;1.32;1.22;;;;;;;18.54;44.81;100037.18;;;;-57
2021/03/15 02:42:10;;;;;;;1.30;1.20;;;;;;;18.53;44.79;100035.00;;;;-58
2021/03/15 02:45:10;;;;;;;1.30;1.20;;;;;;;18.51;44.81;100034.66;;;;-58
2021/03/15 02:48:10;;;;;;;1.32;1.20;;;;;;;18.51;44.83;100036.09;;;;-58
2021/03/15 02:51:10;;;;;;;1.29;1.20;;;;;;;18.51;44.75;100029.69;;;;-57
2021/03/15 02:54:10;;;;;;;1.30;1.20;;;;;;;18.48;44.82;100023.76;;;;-58
2021/03/15 02:57:10;;;;;;;1.36;1.26;;;;;;;18.48;44.83;100019.95;;;;-58
2021/03/15 03:00:10;;;;;;;1.32;1.19;;;;;;;18.47;44.79;100020.53;;;;-57
2021/03/15 03:03:10;;;;;;;1.39;1.29;;;;;;;18.45;44.82;100020.36;;;;-56
2021/03/15 03:06:10;;;;;;;1.30;1.20;;;;;;;18.44;44.83;100013.77;;;;-58
2021/03/15 03:09:10;;;;;;;1.25;1.16;;;;;;;18.43;44.86;100013.53;;;;-57
2021/03/15 03:12:10;;;;;;;1.32;1.17;;;;;;;18.42;44.81;100003.54;;;;-58
2021/03/15 03:15:11;;;;;;;1.30;1.20;;;;;;;18.41;44.84;100005.25;;;;-57
2021/03/15 03:18:10;;;;;;;1.54;1.30;;;;;;;18.41;44.82;100005.15;;;;-57
2021/03/15 03:21:10;;;;;;;1.09;1.09;;;;;;;18.40;44.84;99994.29;;;;-57
2021/03/15 03:24:10;;;;;;;1.47;1.20;;;;;;;18.38;44.85;99988.11;;;;-57
2021/03/15 03:27:10;;;;;;;1.05;1.05;;;;;;;18.37;44.85;99979.94;;;;-58
2021/03/15 03:30:10;;;;;;;1.35;1.25;;;;;;;18.37;44.88;99965.17;;;;-57
2021/03/15 03:33:10;;;;;;;1.29;1.11;;;;;;;18.36;44.89;99973.09;;;;-57
2021/03/15 03:36:10;;;;;;;1.29;1.19;;;;;;;18.35;44.88;99964.11;;;;-57
2021/03/15 03:39:10;;;;;;;1.20;1.10;;;;;;;18.34;44.89;99951.52;;;;-58
2021/03/15 03:42:10;;;;;;;1.30;1.20;;;;;;;18.32;44.91;99950.31;;;;-58
2021/03/15 03:45:10;;;;;;;1.57;1.30;;;;;;;18.32;44.89;99947.21;;;;-57
2021/03/15 03:48:10;;;;;;;1.47;1.19;;;;;;;18.31;44.92;99939.84;;;;-58
2021/03/15 03:51:10;;;;;;;1.35;1.24;;;;;;;18.29;44.91;99937.80;;;;-58
2021/03/15 03:54:10;;;;;;;1.08;1.07;;;;;;;18.29;44.91;99946.39;;;;-58
2021/03/15 03:57:10;;;;;;;1.16;1.09;;;;;;;18.28;44.92;99943.24;;;;-58
2021/03/15 04:00:11;;;;;;;1.31;1.21;;;;;;;18.27;44.92;99931.39;;;;-56
2021/03/15 04:03:11;;;;;;;1.37;1.20;;;;;;;18.26;44.96;99933.09;;;;-57
2021/03/15 04:06:10;;;;;;;1.13;1.07;;;;;;;18.25;44.93;99931.78;;;;-57
2021/03/15 04:09:12;;;;;;;1.40;1.30;;;;;;;18.25;44.90;99932.76;;;;-57
2021/03/15 04:12:10;;;;;;;1.23;1.13;;;;;;;18.24;44.96;99924.72;;;;-57
2021/03/15 04:15:10;;;;;;;1.57;1.13;;;;;;;18.24;44.93;99923.41;;;;-57
2021/03/15 04:18:10;;;;;;;1.29;1.17;;;;;;;18.22;44.95;99918.98;;;;-57
2021/03/15 04:21:10;;;;;;;1.21;1.11;;;;;;;18.22;44.89;99915.95;;;;-58
2021/03/15 04:24:11;;;;;;;1.33;1.23;;;;;;;18.21;44.97;99915.55;;;;-57
2021/03/15 04:27:10;;;;;;;1.20;1.10;;;;;;;18.20;44.92;99919.05;;;;-57
2021/03/15 04:30:10;;;;;;;1.25;1.15;;;;;;;18.19;44.90;99914.66;;;;-57
2021/03/15 04:33:10;;;;;;;1.31;1.21;;;;;;;18.19;45.03;99911.25;;;;-58
2021/03/15 04:36:11;;;;;;;1.11;1.10;;;;;;;18.17;45.04;99909.70;;;;-57
2021/03/15 04:39:10;;;;;;;1.31;1.15;;;;;;;18.17;45.05;99906.30;;;;-57
2021/03/15 04:42:10;;;;;;;1.29;1.19;;;;;;;18.16;44.99;99900.06;;;;-58
2021/03/15 04:45:10;;;;;;;1.09;1.03;;;;;;;18.16;45.00;99893.22;;;;-57
2021/03/15 04:48:10;;;;;;;1.19;1.10;;;;;;;18.14;44.96;99888.94;;;;-57
2021/03/15 04:51:10;;;;;;;1.08;1.06;;;;;;;18.14;44.94;99881.16;;;;-57
2021/03/15 04:54:11;;;;;;;1.20;1.11;;;;;;;18.13;44.99;99874.90;;;;-57
2021/03/15 04:57:10;;;;;;;1.30;1.20;;;;;;;18.12;45.03;99869.24;;;;-56
2021/03/15 05:00:11;;;;;;;1.28;1.18;;;;;;;18.12;45.02;99866.56;;;;-57
2021/03/15 05:03:10;;;;;;;1.29;1.19;;;;;;;18.11;44.96;99863.13;;;;-57
2021/03/15 05:06:10;;;;;;;2.83;1.27;;;;;;;18.10;45.01;99858.29;;;;-58
2021/03/15 05:09:10;;;;;;;2.49;1.29;;;;;;;18.10;44.95;99858.85;;;;-57
2021/03/15 05:12:10;;;;;;;1.94;1.23;;;;;;;18.09;45.10;99856.33;;;;-58
2021/03/15 05:15:10;;;;;;;2.01;1.29;;;;;;;18.10;45.06;99857.72;;;;-57
2021/03/15 05:18:10;;;;;;;2.01;1.10;;;;;;;18.08;45.07;99859.33;;;;-57
2021/03/15 05:21:10;;;;;;;3.25;1.13;;;;;;;18.07;45.11;99847.17;;;;-59
2021/03/15 05:24:10;;;;;;;1.59;1.13;;;;;;;18.07;45.01;99852.02;;;;-57
2021/03/15 05:27:10;;;;;;;2.40;1.14;;;;;;;18.06;45.05;99844.41;;;;-57
2021/03/15 05:30:10;;;;;;;1.33;1.20;;;;;;;18.05;45.01;99841.34;;;;-56
2021/03/15 05:33:10;;;;;;;1.75;1.19;;;;;;;18.05;45.03;99838.16;;;;-58
2021/03/15 05:36:10;;;;;;;1.83;1.18;;;;;;;18.04;45.02;99831.91;;;;-57
2021/03/15 05:39:10;;;;;;;2.49;1.21;;;;;;;18.03;45.09;99827.03;;;;-57
2021/03/15 05:42:10;;;;;;;1.23;1.10;;;;;;;18.03;45.16;99823.55;;;;-56
2021/03/15 05:45:11;;;;;;;1.26;1.12;;;;;;;18.02;45.03;99826.23;;;;-57
2021/03/15 05:48:12;;;;;;;1.46;1.17;;;;;;;18.01;45.12;99817.63;;;;-57
2021/03/15 05:51:10;;;;;;;1.05;1.00;;;;;;;18.00;45.01;99816.17;;;;-57
2021/03/15 05:54:10;;;;;;;1.43;1.11;;;;;;;18.00;45.08;99815.05;;;;-57
2021/03/15 05:59:10;;;;;;;1.27;1.17;;;;;;;17.98;45.11;99806.12;;;;-57
2021/03/15 06:02:10;;;;;;;2.25;1.20;;;;;;;17.97;45.11;99798.67;;;;-57
2021/03/15 06:06:10;;;;;;;1.21;1.11;;;;;;;17.97;45.11;99798.00;;;;-58
2021/03/15 06:09:10;;;;;;;1.26;1.16;;;;;;;17.96;45.08;99792.50;;;;-57
2021/03/15 06:12:10;;;;;;;1.07;1.00;;;;;;;17.95;45.10;99789.56;;;;-57
2021/03/15 06:15:10;;;;;;;1.55;1.19;;;;;;;17.96;45.03;99783.91;;;;-56
2021/03/15 06:18:10;;;;;;;1.13;1.10;;;;;;;17.95;45.08;99780.84;;;;-57
2021/03/15 06:21:11;;;;;;;1.59;1.34;;;;;;;17.95;45.14;99779.86;;;;-57
2021/03/15 06:24:10;;;;;;;1.07;1.00;;;;;;;17.96;45.06;99783.34;;;;-57
2021/03/15 06:27:10;;;;;;;1.13;1.02;;;;;;;17.96;45.07;99783.02;;;;-58
2021/03/15 06:30:10;;;;;;;2.38;1.22;;;;;;;18.00;45.48;99782.38;;;;-55
2021/03/15 06:33:10;;;;;;;2.24;1.22;;;;;;;18.03;45.81;99780.36;;;;-61
2021/03/15 06:36:12;;;;;;;1.37;1.20;;;;;;;18.07;45.91;99777.98;;;;-60
2021/03/15 06:39:11;;;;;;;2.07;1.23;;;;;;;18.12;45.74;99777.86;;;;-54
2021/03/15 06:42:10;;;;;;;2.64;1.37;;;;;;;18.16;46.07;99777.77;;;;-60
2021/03/15 06:45:10;;;;;;;1.70;1.35;;;;;;;18.22;46.11;99783.27;;;;-55
2021/03/15 06:48:10;;;;;;;3.30;1.40;;;;;;;18.28;45.87;99783.62;;;;-62
2021/03/15 06:51:10;;;;;;;4.25;1.34;;;;;;;18.36;45.95;99783.60;;;;-61
2021/03/15 06:54:10;;;;;;;2.02;1.23;;;;;;;18.45;45.82;99789.14;;;;-55
2021/03/15 06:57:10;;;;;;;4.51;1.20;;;;;;;18.51;45.61;99790.58;;;;-54
2021/03/15 07:00:10;;;;;;;2.93;1.29;;;;;;;18.55;45.52;99786.22;;;;-56
2021/03/15 07:03:10;;;;;;;5.07;1.14;;;;;;;18.61;45.52;99790.33;;;;-60
2021/03/15 07:06:10;;;;;;;1.45;1.09;;;;;;;18.66;45.48;99793.92;;;;-55
2021/03/15 07:09:10;;;;;;;4.19;1.19;;;;;;;18.71;45.42;99791.78;;;;-51
2021/03/15 07:12:10;;;;;;;1.37;1.27;;;;;;;18.76;45.26;99793.31;;;;-56
2021/03/15 07:15:10;;;;;;;2.40;1.17;;;;;;;18.80;45.32;99795.70;;;;-60
2021/03/15 07:18:10;;;;;;;1.37;1.15;;;;;;;18.84;45.21;99793.66;;;;-60
2021/03/15 07:21:10;;;;;;;1.27;1.07;;;;;;;18.88;45.19;99796.08;;;;-51
2021/03/15 07:24:10;;;;;;;1.50;1.13;;;;;;;18.92;45.24;99802.25;;;;-52
2021/03/15 07:27:10;;;;;;;1.20;1.10;;;;;;;18.94;45.20;99802.41;;;;-52
2021/03/15 07:30:10;;;;;;;2.29;1.25;;;;;;;18.98;45.06;99807.92;;;;-52
2021/03/15 07:33:10;;;;;;;1.30;1.07;;;;;;;19.01;45.09;99810.20;;;;-60
2021/03/15 07:36:10;;;;;;;1.44;1.10;;;;;;;19.04;45.03;99812.14;;;;-60
2021/03/15 07:39:10;;;;;;;2.46;1.11;;;;;;;19.07;45.02;99808.70;;;;-61
2021/03/15 07:42:10;;;;;;;1.30;1.20;;;;;;;19.10;44.99;99812.84;;;;-60
2021/03/15 07:45:10;;;;;;;1.16;1.06;;;;;;;19.11;44.88;99813.73;;;;-50
2021/03/15 07:48:10;;;;;;;2.11;1.19;;;;;;;19.16;45.10;99812.76;;;;-47
2021/03/15 07:51:10;;;;;;;1.30;1.12;;;;;;;19.22;45.27;99810.23;;;;-53
2021/03/15 07:54:10;;;;;;;1.20;1.10;;;;;;;19.26;45.38;99813.62;;;;-53
2021/03/15 07:57:10;;;;;;;2.23;1.09;;;;;;;19.31;45.45;99812.14;;;;-53
2021/03/15 08:00:10;;;;;;;2.21;1.20;;;;;;;19.37;45.46;99815.94;;;;-55
2021/03/15 08:03:10;;;;;;;2.52;1.11;;;;;;;19.40;45.24;99818.52;;;;-53
2021/03/15 08:06:10;;;;;;;1.75;1.08;;;;;;;19.45;45.33;99822.74;;;;-48
2021/03/15 08:09:10;;;;;;;1.82;1.17;;;;;;;19.48;45.40;99821.16;;;;-49
2021/03/15 08:12:10;;;;;;;1.51;1.19;;;;;;;19.52;45.44;99826.85;;;;-54
2021/03/15 08:15:10;;;;;;;1.84;1.09;;;;;;;19.56;45.48;99826.91;;;;-59
2021/03/15 08:18:11;;;;;;;1.21;1.10;;;;;;;19.62;45.58;99828.44;;;;-56
2021/03/15 08:21:10;;;;;;;1.55;1.09;;;;;;;19.65;45.55;99832.31;;;;-57
2021/03/15 08:24:10;;;;;;;1.04;1.00;;;;;;;19.70;45.53;99837.27;;;;-53
2021/03/15 08:27:10;;;;;;;1.07;0.98;;;;;;;19.74;45.53;99834.03;;;;-51
2021/03/15 08:30:10;;;;;;;1.53;1.10;;;;;;;19.80;45.49;99841.64;;;;-51
2021/03/15 08:33:10;;;;;;;1.39;1.09;;;;;;;19.82;45.48;99840.73;;;;-51
2021/03/15 08:36:10;;;;;;;1.33;1.00;;;;;;;19.88;45.52;99844.12;;;;-51
2021/03/15 08:39:10;;;;;;;2.43;1.00;;;;;;;19.92;45.35;99842.22;;;;-49
2021/03/15 08:42:10;;;;;;;1.07;0.96;;;;;;;19.96;45.41;99842.36;;;;-47
2021/03/15 08:45:10;;;;;;;1.15;1.06;;;;;;;19.97;45.35;99845.45;;;;-50
2021/03/15 08:49:20;;;;;;;1.17;1.00;;;;;;;20.01;45.44;99848.77;;;;-53
2021/03/15 08:52:10;;;;;;;1.09;1.01;;;;;;;20.02;45.38;99840.20;;;;-54
2021/03/15 08:55:10;;;;;;;1.11;1.00;;;;;;;20.08;45.40;99844.81;;;;-54
2021/03/15 08:58:10;;;;;;;0.90;0.88;;;;;;;20.08;45.36;99843.34;;;;-54
2021/03/15 09:01:10;;;;;;;1.12;1.01;;;;;;;20.11;45.32;99845.95;;;;-54
2021/03/15 09:04:10;;;;;;;1.07;0.95;;;;;;;20.12;45.30;99846.50;;;;-51
2021/03/15 09:07:10;;;;;;;1.18;0.99;;;;;;;20.14;45.41;99848.27;;;;-49
2021/03/15 09:10:10;;;;;;;1.09;0.99;;;;;;;20.16;45.38;99847.93;;;;-49
2021/03/15 09:15:10;;;;;;;1.94;1.00;;;;;;;20.21;45.36;99852.53;;;;-58
2021/03/15 09:18:10;;;;;;;2.05;0.89;;;;;;;20.21;45.22;99857.84;;;;-57
2021/03/15 09:21:10;;;;;;;0.96;0.85;;;;;;;20.28;45.36;99858.85;;;;-59
2021/03/15 09:24:10;;;;;;;1.23;0.99;;;;;;;20.30;45.13;99859.73;;;;-54
2021/03/15 09:27:10;;;;;;;1.80;0.99;;;;;;;20.33;45.19;99861.89;;;;-49
2021/03/15 09:30:10;;;;;;;1.20;1.11;;;;;;;20.37;45.23;99870.08;;;;-50
2021/03/15 09:33:10;;;;;;;1.50;1.03;;;;;;;20.38;45.07;99873.09;;;;-48
2021/03/15 09:36:10;;;;;;;4.99;0.98;;;;;;;20.41;44.90;99874.71;;;;-59
2021/03/15 09:39:10;;;;;;;1.35;1.00;;;;;;;20.42;44.81;99875.52;;;;-51
2021/03/15 09:42:10;;;;;;;0.91;0.85;;;;;;;20.44;45.00;99878.03;;;;-51
2021/03/15 09:45:11;;;;;;;1.99;0.90;;;;;;;20.45;44.84;99878.73;;;;-51
2021/03/15 09:48:10;;;;;;;0.97;0.91;;;;;;;20.45;44.74;99875.07;;;;-52
2021/03/15 09:51:10;;;;;;;1.11;0.96;;;;;;;20.47;44.86;99877.75;;;;-52
2021/03/15 09:54:10;;;;;;;1.07;0.97;;;;;;;20.49;44.86;99880.67;;;;-56
2021/03/15 09:57:10;;;;;;;1.06;0.91;;;;;;;20.49;44.88;99884.83;;;;-58
2021/03/15 10:00:10;;;;;;;1.20;0.93;;;;;;;20.53;44.82;99888.39;;;;-53
2021/03/15 10:03:10;;;;;;;1.51;0.90;;;;;;;20.57;44.68;99888.52;;;;-57
2021/03/15 10:06:10;;;;;;;1.05;0.99;;;;;;;20.57;44.76;99887.13;;;;-62
2021/03/15 10:09:10;;;;;;;1.10;0.89;;;;;;;20.59;44.73;99885.45;;;;-59
2021/03/15 10:12:10;;;;;;;0.96;0.90;;;;;;;20.61;44.77;99889.72;;;;-50
2021/03/15 10:15:10;;;;;;;1.05;0.94;;;;;;;20.63;44.85;99897.38;;;;-60
2021/03/15 10:18:10;;;;;;;1.09;1.02;;;;;;;20.62;44.81;99901.34;;;;-54
2021/03/15 10:21:10;;;;;;;0.93;0.93;;;;;;;20.62;44.73;99906.73;;;;-51
2021/03/15 10:24:10;;;;;;;1.04;0.95;;;;;;;20.62;44.88;99918.86;;;;-61
2021/03/15 10:29:32;;;;;;;2.56;0.85;;;;;;;20.65;44.92;99929.77;;;;-57
2021/03/15 10:32:32;;;;;;;0.87;0.87;;;;;;;20.67;44.78;99926.31;;;;-55
2021/03/15 10:35:31;;;;;;;0.90;0.90;;;;;;;20.67;44.71;99939.50;;;;-56
2021/03/15 10:38:31;;;;;;;3.03;0.91;;;;;;;20.69;44.63;99939.00;;;;-53
2021/03/15 10:41:32;;;;;;;1.12;0.86;;;;;;;20.69;44.47;99938.02;;;;-53
2021/03/15 10:44:31;;;;;;;1.05;0.90;;;;;;;20.62;44.04;99941.81;;;;-53
2021/03/15 10:47:31;;;;;;;0.93;0.90;;;;;;;20.57;43.60;99944.28;;;;-53
2021/03/15 10:50:32;;;;;;;0.81;0.81;;;;;;;20.53;43.38;99940.63;;;;-56
2021/03/15 10:53:32;;;;;;;1.01;1.01;;;;;;;20.50;43.06;99941.72;;;;-57
2021/03/15 10:56:32;;;;;;;0.97;0.97;;;;;;;20.48;43.21;99948.30;;;;-54
2021/03/15 10:59:32;;;;;;;0.95;0.95;;;;;;;20.46;42.91;99955.64;;;;-50
2021/03/15 11:02:31;;;;;;;1.58;0.99;;;;;;;20.44;42.86;99951.91;;;;-55
2021/03/15 11:05:31;;;;;;;0.97;0.91;;;;;;;20.42;43.02;99966.75;;;;-55
2021/03/15 11:08:32;;;;;;;0.89;0.89;;;;;;;20.42;42.86;99972.35;;;;-52
2021/03/15 11:11:34;;;;;;;1.04;0.87;;;;;;;20.40;42.74;99969.94;;;;-53
2021/03/15 11:14:34;;;;;;;0.88;0.88;;;;;;;20.38;42.67;99971.81;;;;-52
2021/03/15 11:17:32;;;;;;;1.39;0.95;;;;;;;20.38;42.96;99972.38;;;;-51
2021/03/15 11:20:31;;;;;;;1.15;0.90;;;;;;;20.42;43.37;99977.09;;;;-51
2021/03/15 11:23:32;;;;;;;0.83;0.83;;;;;;;20.47;43.54;99978.36;;;;-53
2021/03/15 11:26:31;;;;;;;1.02;0.93;;;;;;;20.48;43.49;99980.20;;;;-54
2021/03/15 11:29:31;;;;;;;2.20;0.95;;;;;;;20.49;43.45;99985.99;;;;-65
2021/03/15 11:32:32;;;;;;;1.05;0.80;;;;;;;20.53;43.75;99984.27;;;;-59
2021/03/15 11:35:31;;;;;;;1.07;0.89;;;;;;;20.54;43.98;99991.84;;;;-54
2021/03/15 11:38:31;;;;;;;1.52;0.99;;;;;;;20.56;43.90;99992.06;;;;-59
2021/03/15 11:41:32;;;;;;;1.39;0.74;;;;;;;20.60;43.92;99986.36;;;;-59
2021/03/15 11:44:31;;;;;;;1.63;0.81;;;;;;;20.61;43.95;99991.09;;;;-45
2021/03/15 11:47:32;;;;;;;0.90;0.89;;;;;;;20.64;43.92;99993.01;;;;-59
2021/03/15 11:50:32;;;;;;;1.84;0.88;;;;;;;20.64;43.63;99989.69;;;;-60
2021/03/15 11:53:31;;;;;;;1.95;0.87;;;;;;;20.61;43.58;99988.64;;;;-61
2021/03/15 11:56:31;;;;;;;1.90;1.09;;;;;;;20.62;43.54;99994.16;;;;-62
2021/03/15 11:59:32;;;;;;;0.91;0.89;;;;;;;20.61;43.49;99988.49;;;;-61
2021/03/15 12:02:31;;;;;;;1.47;1.00;;;;;;;20.61;43.46;99988.89;;;;-60
2021/03/15 12:05:32;;;;;;;0.88;0.81;;;;;;;20.61;43.40;99988.33;;;;-60
2021/03/15 12:08:32;;;;;;;1.17;1.07;;;;;;;20.62;43.31;99989.45;;;;-62
2021/03/15 12:11:31;;;;;;;1.49;0.90;;;;;;;20.62;43.30;99997.83;;;;-62
2021/03/15 12:14:31;;;;;;;1.09;0.85;;;;;;;20.61;43.35;99997.78;;;;-60
2021/03/15 12:17:33;;;;;;;1.03;0.96;;;;;;;20.59;43.31;99993.78;;;;-55
2021/03/15 12:20:31;;;;;;;1.99;1.09;;;;;;;20.65;43.46;99997.73;;;;-51
2021/03/15 12:23:31;;;;;;;1.34;1.00;;;;;;;20.69;43.73;100000.64;;;;-53
2021/03/15 12:26:32;;;;;;;2.45;1.01;;;;;;;20.68;43.70;99999.09;;;;-52
2021/03/15 12:29:33;;;;;;;1.07;0.97;;;;;;;20.71;43.91;100003.33;;;;-54
2021/03/15 12:32:31;;;;;;;1.05;1.01;;;;;;;20.73;43.89;100002.75;;;;-52
2021/03/15 12:35:31;;;;;;;0.91;0.90;;;;;;;20.76;43.86;100006.64;;;;-51
2021/03/15 12:38:31;;;;;;;1.11;0.94;;;;;;;20.76;43.84;100001.73;;;;-61
2021/03/15 12:41:32;;;;;;;1.16;1.00;;;;;;;20.77;43.87;100002.30;;;;-48
2021/03/15 12:44:31;;;;;;;1.12;1.05;;;;;;;20.80;43.96;100007.02;;;;-51
2021/03/15 12:47:31;;;;;;;0.86;0.83;;;;;;;20.82;44.03;100003.75;;;;-53
2021/03/15 12:50:32;;;;;;;0.92;0.91;;;;;;;20.82;43.98;100003.75;;;;-61
2021/03/15 12:53:31;;;;;;;1.30;1.11;;;;;;;20.82;43.95;99995.03;;;;-54
2021/03/15 12:56:31;;;;;;;1.20;1.10;;;;;;;20.84;43.90;99997.71;;;;-57
2021/03/15 12:59:32;;;;;;;1.16;1.09;;;;;;;20.86;43.92;99998.91;;;;-60
2021/03/15 13:02:33;;;;;;;0.99;0.99;;;;;;;20.86;43.99;100000.86;;;;-58
2021/03/15 13:05:32;;;;;;;1.20;1.08;;;;;;;20.87;43.82;100004.84;;;;-55
2021/03/15 13:08:31;;;;;;;1.05;1.00;;;;;;;20.88;44.06;100005.49;;;;-53
2021/03/15 13:11:31;;;;;;;1.33;1.10;;;;;;;20.89;44.05;100003.92;;;;-51
2021/03/15 13:14:31;;;;;;;0.98;0.98;;;;;;;20.93;43.98;100008.48;;;;-52
2021/03/15 13:17:32;;;;;;;1.12;1.01;;;;;;;20.92;43.93;100015.08;;;;-61
2021/03/15 13:20:31;;;;;;;1.00;1.00;;;;;;;20.93;44.06;100015.80;;;;-56
2021/03/15 13:23:31;;;;;;;2.44;1.00;;;;;;;20.93;44.02;100015.22;;;;-61
2021/03/15 13:26:32;;;;;;;0.90;0.90;;;;;;;20.94;43.92;100011.06;;;;-54
2021/03/15 13:29:31;;;;;;;1.06;1.00;;;;;;;20.96;44.11;100011.97;;;;-57
2021/03/15 13:32:31;;;;;;;1.31;1.08;;;;;;;20.92;43.81;100015.14;;;;-53
2021/03/15 13:35:32;;;;;;;1.28;0.97;;;;;;;20.95;43.86;100018.55;;;;-65
2021/03/15 13:38:31;;;;;;;1.04;1.01;;;;;;;20.95;43.92;100026.53;;;;-52
2021/03/15 13:41:32;;;;;;;1.13;1.03;;;;;;;20.97;43.98;100023.59;;;;-60
2021/03/15 13:44:31;;;;;;;1.07;1.00;;;;;;;20.98;43.88;100027.16;;;;-62
2021/03/15 13:47:31;;;;;;;0.98;0.98;;;;;;;21.00;43.93;100027.98;;;;-63
2021/03/15 13:50:32;;;;;;;1.37;0.90;;;;;;;20.99;43.95;100032.45;;;;-62
2021/03/15 13:53:31;;;;;;;0.99;0.99;;;;;;;21.01;43.98;100033.11;;;;-52
2021/03/15 13:56:32;;;;;;;1.51;0.99;;;;;;;21.01;43.90;100027.39;;;;-55
2021/03/15 13:59:31;;;;;;;1.22;1.11;;;;;;;21.00;43.90;100035.15;;;;-53
2021/03/15 14:02:31;;;;;;;1.03;1.00;;;;;;;21.03;44.06;100036.68;;;;-58
2021/03/15 14:05:31;;;;;;;1.77;1.10;;;;;;;21.04;43.99;100039.73;;;;-51
2021/03/15 14:08:32;;;;;;;0.91;0.91;;;;;;;21.02;43.97;100041.98;;;;-52
2021/03/15 14:11:31;;;;;;;1.40;0.98;;;;;;;21.02;43.91;100028.67;;;;-53
2021/03/15 14:14:31;;;;;;;1.11;1.07;;;;;;;21.06;43.97;100039.58;;;;-60
2021/03/15 14:17:31;;;;;;;0.90;0.89;;;;;;;21.08;44.02;100046.17;;;;-48
2021/03/15 14:20:31;;;;;;;1.09;0.99;;;;;;;21.08;44.12;100040.04;;;;-58
2021/03/15 14:23:31;;;;;;;0.93;0.90;;;;;;;21.06;44.00;100037.86;;;;-54
2021/03/15 14:26:32;;;;;;;1.04;0.99;;;;;;;21.07;43.95;100033.87;;;;-59
2021/03/15 14:29:31;;;;;;;0.89;0.89;;;;;;;21.10;44.16;100036.93;;;;-52
2021/03/15 14:32:31;;;;;;;1.25;1.00;;;;;;;21.12;43.90;100033.00;;;;-54
2021/03/15 14:35:31;;;;;;;1.33;1.13;;;;;;;21.13;43.91;100034.73;;;;-51
2021/03/15 14:38:31;;;;;;;1.71;1.00;;;;;;;21.14;43.92;100032.67;;;;-54
2021/03/15 14:41:32;;;;;;;1.72;0.98;;;;;;;21.15;43.86;100038.96;;;;-54
2021/03/15 14:44:32;;;;;;;0.87;0.85;;;;;;;21.15;43.97;100031.79;;;;-58
2021/03/15 14:47:31;;;;;;;1.55;1.05;;;;;;;21.15;43.88;100034.95;;;;-60
2021/03/15 14:50:31;;;;;;;1.09;1.00;;;;;;;21.17;43.83;100033.39;;;;-54
2021/03/15 14:53:32;;;;;;;0.98;0.93;;;;;;;21.18;43.86;100043.89;;;;-57
2021/03/15 14:56:31;;;;;;;1.13;0.90;;;;;;;21.18;43.91;100040.30;;;;-53
2021/03/15 14:59:32;;;;;;;0.92;0.92;;;;;;;21.19;43.90;100042.83;;;;-52
2021/03/15 15:02:31;;;;;;;0.95;0.91;;;;;;;21.19;43.95;100037.54;;;;-51
2021/03/15 15:05:31;;;;;;;1.95;1.10;;;;;;;21.18;43.98;100041.44;;;;-49
2021/03/15 15:08:32;;;;;;;0.90;0.90;;;;;;;21.17;43.97;100045.37;;;;-54
2021/03/15 15:11:31;;;;;;;1.11;0.96;;;;;;;21.17;44.00;100048.56;;;;-52
2021/03/15 15:14:31;;;;;;;1.81;0.89;;;;;;;21.16;43.93;100055.22;;;;-58
2021/03/15 15:17:32;;;;;;;1.10;1.01;;;;;;;21.16;44.05;100058.33;;;;-52
2021/03/15 15:20:31;;;;;;;1.15;1.05;;;;;;;21.15;44.00;100064.13;;;;-57
2021/03/15 15:23:31;;;;;;;0.91;0.91;;;;;;;21.17;44.10;100067.62;;;;-56
2021/03/15 15:26:31;;;;;;;0.91;0.90;;;;;;;21.18;44.11;100078.03;;;;-50
2021/03/15 15:29:31;;;;;;;1.00;1.00;;;;;;;21.19;43.95;100095.22;;;;-51
2021/03/15 15:32:31;;;;;;;0.97;0.97;;;;;;;21.20;44.01;100115.34;;;;-56
2021/03/15 15:35:41;;;;;;;0.86;0.86;;;;;;;21.18;43.83;100130.42;;;;-53
2021/03/15 15:38:31;;;;;;;0.93;0.89;;;;;;;21.19;43.90;100149.34;;;;-54
2021/03/15 15:41:31;;;;;;;1.61;1.00;;;;;;;21.19;43.72;100158.63;;;;-62
2021/03/15 15:44:32;;;;;;;1.15;1.01;;;;;;;21.17;43.58;100157.34;;;;-54
2021/03/15 15:47:31;;;;;;;1.87;1.00;;;;;;;21.17;43.43;100149.28;;;;-61
2021/03/15 15:50:31;;;;;;;1.07;0.97;;;;;;;21.15;43.43;100151.64;;;;-62
2021/03/15 15:53:32;;;;;;;0.90;0.90;;;;;;;21.13;43.38;100149.94;;;;-63
2021/03/15 15:56:31;;;;;;;1.10;1.00;;;;;;;21.13;43.35;100155.00;;;;-54
2021/03/15 15:59:31;;;;;;;1.05;0.99;;;;;;;21.14;43.27;100157.26;;;;-54
2021/03/15 16:02:31;;;;;;;0.93;0.90;;;;;;;21.13;43.29;100163.22;;;;-61
2021/03/15 16:05:33;;;;;;;1.22;1.00;;;;;;;21.13;43.26;100167.14;;;;-55
2021/03/15 16:08:31;;;;;;;0.81;0.81;;;;;;;21.13;43.20;100174.47;;;;-62
2021/03/15 16:11:32;;;;;;;0.83;0.83;;;;;;;21.15;43.21;100177.97;;;;-63
2021/03/15 16:14:31;;;;;;;0.95;0.93;;;;;;;21.13;43.20;100178.30;;;;-61
2021/03/15 16:17:31;;;;;;;0.90;0.90;;;;;;;21.12;43.26;100179.83;;;;-61
2021/03/15 16:20:32;;;;;;;1.03;1.02;;;;;;;21.12;43.23;100179.43;;;;-54
2021/03/15 16:23:31;;;;;;;0.79;0.79;;;;;;;21.13;43.19;100185.64;;;;-54
2021/03/15 16:26:31;;;;;;;1.13;0.90;;;;;;;21.14;43.19;100194.02;;;;-54
2021/03/15 16:29:31;;;;;;;0.89;0.89;;;;;;;21.15;43.14;100188.56;;;;-61
2021/03/15 16:32:31;;;;;;;0.98;0.98;;;;;;;21.14;43.17;100199.80;;;;-61
2021/03/15 16:35:31;;;;;;;0.98;0.98;;;;;;;21.11;43.28;100198.44;;;;-51
2021/03/15 16:38:31;;;;;;;1.11;0.99;;;;;;;21.10;43.04;100196.96;;;;-54
2021/03/15 16:41:31;;;;;;;1.34;1.00;;;;;;;21.08;42.86;100200.98;;;;-60
2021/03/15 16:44:31;;;;;;;1.87;1.00;;;;;;;21.08;42.67;100200.15;;;;-52
2021/03/15 16:47:31;;;;;;;1.81;1.02;;;;;;;21.08;42.61;100204.47;;;;-52
2021/03/15 16:50:31;;;;;;;0.94;0.84;;;;;;;21.08;42.53;100205.12;;;;-60
2021/03/15 16:53:32;;;;;;;1.50;0.96;;;;;;;21.08;42.53;100203.97;;;;-60
2021/03/15 16:56:31;;;;;;;1.09;1.00;;;;;;;21.08;42.44;100213.43;;;;-51
2021/03/15 16:59:31;;;;;;;1.13;1.05;;;;;;;21.08;42.54;100214.51;;;;-53